createdAt,value
2018-06-30T00:00:51.136Z,14.20
2018-06-30T00:03:19.580Z,14.37
2018-06-30T00:05:47.985Z,14.97
2018-06-30T00:08:16.412Z,14.90
2018-06-30T00:10:44.925Z,14.50
2018-06-30T00:13:13.315Z,14.60
2018-06-30T00:15:41.650Z,15.03
2018-06-30T00:18:10.304Z,15.47
2018-06-30T00:20:38.899Z,14.50
2018-06-30T00:23:07.355Z,14.00
2018-06-30T00:25:35.895Z,16.37
2018-06-30T00:28:04.718Z,15.63
2018-06-30T00:30:33.208Z,14.80
2018-06-30T00:33:01.546Z,15.17
2018-06-30T00:35:29.945Z,16.10
2018-06-30T00:37:58.393Z,15.50
2018-06-30T00:40:26.775Z,15.20
2018-06-30T00:42:55.275Z,15.50
2018-06-30T00:45:24.120Z,15.37
2018-06-30T00:47:52.551Z,14.93
2018-06-30T00:50:21.226Z,15.43
2018-06-30T00:52:49.814Z,15.40
2018-06-30T00:55:18.247Z,15.60
2018-06-30T00:57:46.671Z,16.10
2018-06-30T01:00:15.083Z,15.00
2018-06-30T01:02:43.562Z,15.27
2018-06-30T01:05:12.028Z,15.17
2018-06-30T01:07:40.703Z,15.70
2018-06-30T01:10:09.129Z,15.90
2018-06-30T01:12:37.628Z,15.90
2018-06-30T01:15:06.092Z,15.23
2018-06-30T01:17:34.647Z,16.00
2018-06-30T01:20:03.768Z,15.13
2018-06-30T01:22:32.174Z,15.80
2018-06-30T01:25:00.795Z,15.47
2018-06-30T01:27:29.229Z,15.67
2018-06-30T01:29:57.612Z,16.63
2018-06-30T01:32:26.159Z,15.93
2018-06-30T01:34:54.589Z,17.30
2018-06-30T01:37:22.946Z,17.93
2018-06-30T01:39:51.296Z,17.90
2018-06-30T01:42:19.811Z,18.60
2018-06-30T01:44:48.236Z,19.00
2018-06-30T01:47:16.880Z,18.37
2018-06-30T01:49:45.347Z,17.30
2018-06-30T01:52:13.829Z,17.07
2018-06-30T01:54:42.288Z,18.03
2018-06-30T01:57:10.641Z,16.90
2018-06-30T01:59:39.422Z,16.97
2018-06-30T02:02:07.841Z,17.07
2018-06-30T02:04:36.285Z,18.07
2018-06-30T02:07:04.899Z,18.93
2018-06-30T02:09:33.311Z,17.70
2018-06-30T02:12:01.693Z,16.87
2018-06-30T02:14:30.131Z,16.77
2018-06-30T02:16:58.597Z,19.17
2018-06-30T02:19:27.006Z,17.40
2018-06-30T02:21:55.524Z,16.53
2018-06-30T02:24:24.082Z,17.63
2018-06-30T02:26:52.782Z,17.20
2018-06-30T02:29:21.160Z,17.80
2018-06-30T02:31:49.541Z,18.80
2018-06-30T02:34:18.067Z,17.17
2018-06-30T02:36:46.480Z,18.40
2018-06-30T02:39:14.990Z,19.03
2018-06-30T02:41:43.480Z,17.93
2018-06-30T02:44:11.842Z,18.17
2018-06-30T02:46:40.244Z,18.60
2018-06-30T02:49:08.749Z,18.00
2018-06-30T02:51:37.153Z,18.20
2018-06-30T02:54:05.571Z,17.50
2018-06-30T02:56:33.991Z,18.23
2018-06-30T02:59:02.478Z,17.57
2018-06-30T03:01:30.891Z,18.13
2018-06-30T03:03:59.305Z,16.80
2018-06-30T03:06:27.768Z,17.27
2018-06-30T03:08:56.243Z,17.40
2018-06-30T03:11:24.641Z,17.83
2018-06-30T03:13:53.019Z,17.60
2018-06-30T03:16:21.475Z,18.37
2018-06-30T03:18:49.944Z,17.10
2018-06-30T03:21:18.327Z,18.57
2018-06-30T03:23:46.769Z,16.87
2018-06-30T03:26:15.253Z,19.50
2018-06-30T03:28:43.609Z,18.10
2018-06-30T03:31:12.055Z,18.30
2018-06-30T03:33:40.489Z,17.70
2018-06-30T03:36:08.938Z,17.90
2018-06-30T03:38:37.980Z,17.07
2018-06-30T03:41:06.577Z,18.07
2018-06-30T03:43:35.049Z,17.53
2018-06-30T03:46:03.578Z,17.80
2018-06-30T03:48:32.013Z,17.00
2018-06-30T03:51:00.466Z,17.13
2018-06-30T03:53:28.930Z,17.57
2018-06-30T03:55:57.625Z,15.20
2018-06-30T03:58:25.991Z,15.97
2018-06-30T04:00:57.706Z,16.33
2018-06-30T04:03:26.280Z,16.97
2018-06-30T04:05:54.702Z,16.30
2018-06-30T04:08:23.044Z,16.50
2018-06-30T04:10:51.452Z,17.03
2018-06-30T04:13:19.900Z,15.97
2018-06-30T04:15:48.393Z,16.63
2018-06-30T04:18:16.898Z,15.90
2018-06-30T04:20:45.364Z,16.87
2018-06-30T04:23:13.775Z,15.57
2018-06-30T04:25:42.111Z,15.77
2018-06-30T04:28:10.598Z,16.37
2018-06-30T04:30:39.027Z,16.90
2018-06-30T04:33:08.083Z,15.13
2018-06-30T04:35:36.563Z,15.73
2018-06-30T04:38:05.325Z,16.70
2018-06-30T04:40:36.622Z,16.40
2018-06-30T04:43:05.166Z,15.60
2018-06-30T04:45:33.633Z,15.77
2018-06-30T04:48:02.179Z,16.13
2018-06-30T04:50:30.549Z,15.13
2018-06-30T04:52:59.073Z,15.80
2018-06-30T04:55:27.605Z,14.27
2018-06-30T04:57:56.004Z,14.53
2018-06-30T05:00:24.492Z,15.53
2018-06-30T05:02:52.859Z,15.37
2018-06-30T05:05:21.298Z,16.00
2018-06-30T05:07:49.715Z,15.63
2018-06-30T05:10:18.124Z,16.60
2018-06-30T05:12:46.526Z,16.10
2018-06-30T05:15:14.971Z,16.10
2018-06-30T05:17:43.919Z,14.60
2018-06-30T05:20:12.400Z,15.87
2018-06-30T05:22:40.841Z,15.53
2018-06-30T05:25:09.225Z,15.97
2018-06-30T05:27:37.653Z,15.10
2018-06-30T05:30:06.041Z,15.47
2018-06-30T05:32:34.537Z,15.93
2018-06-30T05:35:02.958Z,14.87
2018-06-30T05:37:31.356Z,14.30
2018-06-30T05:39:59.858Z,14.20
2018-06-30T05:42:28.260Z,14.43
2018-06-30T05:44:56.608Z,14.07
2018-06-30T05:47:24.983Z,14.30
2018-06-30T05:49:53.065Z,14.93
2018-06-30T05:52:21.428Z,13.80
2018-06-30T05:54:49.864Z,14.03
2018-06-30T05:57:18.230Z,14.70
2018-06-30T05:59:46.308Z,15.73
2018-06-30T06:02:14.675Z,15.13
2018-06-30T06:04:43.539Z,16.60
2018-06-30T06:07:12.031Z,15.80
2018-06-30T06:09:40.436Z,15.30
2018-06-30T06:12:08.932Z,15.60
2018-06-30T06:14:37.318Z,15.87
2018-06-30T06:17:05.723Z,15.00
2018-06-30T06:19:34.061Z,14.53
2018-06-30T06:22:02.620Z,16.17
2018-06-30T06:24:31.040Z,15.50
2018-06-30T06:26:59.523Z,16.97
2018-06-30T06:29:28.022Z,16.10
2018-06-30T06:31:56.483Z,16.93
2018-06-30T06:34:24.888Z,16.07
2018-06-30T06:36:53.290Z,16.40
2018-06-30T06:39:21.797Z,17.07
2018-06-30T06:41:50.388Z,16.10
2018-06-30T06:44:19.110Z,17.40
2018-06-30T06:46:47.603Z,17.90
2018-06-30T06:49:16.049Z,15.03
2018-06-30T06:51:44.460Z,15.60
2018-06-30T06:54:12.893Z,16.43
2018-06-30T06:56:41.333Z,16.20
2018-06-30T06:59:09.705Z,15.43
2018-06-30T07:01:38.177Z,16.50
2018-06-30T07:04:06.588Z,16.50
2018-06-30T07:06:35.109Z,16.07
2018-06-30T07:09:03.731Z,16.27
2018-06-30T07:11:32.128Z,16.33
2018-06-30T07:14:00.507Z,15.77
2018-06-30T07:16:28.993Z,17.07
2018-06-30T07:18:57.422Z,16.83
2018-06-30T07:21:25.831Z,16.90
2018-06-30T07:23:54.202Z,16.93
2018-06-30T07:26:22.750Z,15.97
2018-06-30T07:28:51.108Z,17.03
2018-06-30T07:31:19.688Z,15.17
2018-06-30T07:33:48.092Z,16.17
2018-06-30T07:36:16.635Z,16.67
2018-06-30T07:38:45.052Z,17.00
2018-06-30T07:41:13.643Z,16.37
2018-06-30T07:43:42.148Z,16.00
2018-06-30T07:46:11.952Z,16.57
2018-06-30T07:48:41.680Z,19.40
2018-06-30T07:51:10.442Z,16.97
2018-06-30T07:53:38.876Z,15.93
2018-06-30T07:56:07.282Z,16.40
2018-06-30T07:58:35.961Z,16.70
2018-06-30T08:01:04.595Z,16.30
2018-06-30T08:03:34.454Z,16.30
2018-06-30T08:06:02.965Z,15.87
2018-06-30T08:08:31.642Z,14.87
2018-06-30T08:11:00.674Z,14.13
2018-06-30T08:13:29.409Z,15.90
2018-06-30T08:15:57.945Z,15.13
2018-06-30T08:18:26.440Z,14.37
2018-06-30T08:20:54.795Z,14.90
2018-06-30T08:23:23.637Z,14.80
2018-06-30T08:25:52.163Z,14.20
2018-06-30T08:28:20.540Z,15.27
2018-06-30T08:30:48.910Z,14.63
2018-06-30T08:33:17.011Z,15.30
2018-06-30T08:35:45.377Z,15.10
2018-06-30T08:38:13.756Z,15.27
2018-06-30T08:40:42.373Z,14.60
2018-06-30T08:43:10.769Z,14.97
2018-06-30T08:45:39.411Z,14.27
2018-06-30T08:48:07.870Z,15.37
2018-06-30T08:50:36.230Z,14.20
2018-06-30T08:53:04.646Z,14.63
2018-06-30T08:55:33.145Z,14.40
2018-06-30T08:58:01.483Z,14.27
2018-06-30T09:00:30.162Z,14.80
2018-06-30T09:02:58.617Z,14.40
2018-06-30T09:05:27.049Z,13.97
2018-06-30T09:07:55.520Z,13.00
2018-06-30T09:10:23.943Z,13.27
2018-06-30T09:12:52.383Z,13.40
2018-06-30T09:15:20.797Z,12.73
2018-06-30T09:17:49.928Z,13.20
2018-06-30T09:20:18.371Z,12.90
2018-06-30T09:22:46.853Z,13.10
2018-06-30T09:25:15.309Z,13.03
2018-06-30T09:27:43.698Z,14.23
2018-06-30T09:30:12.250Z,14.73
2018-06-30T09:32:40.618Z,14.63
2018-06-30T09:35:09.585Z,14.73
2018-06-30T09:37:38.102Z,14.40
2018-06-30T09:40:06.775Z,14.80
2018-06-30T09:42:35.201Z,14.13
2018-06-30T09:45:03.675Z,14.67
2018-06-30T09:47:31.998Z,14.20
2018-06-30T09:50:00.510Z,14.30
2018-06-30T09:52:28.930Z,13.90
2018-06-30T09:54:57.371Z,14.63
2018-06-30T09:57:25.763Z,14.03
2018-06-30T09:59:54.116Z,13.68
2018-06-30T10:02:22.751Z,14.30
2018-06-30T10:04:51.115Z,12.93
2018-06-30T10:07:20.118Z,12.53
2018-06-30T10:09:48.541Z,12.33
2018-06-30T10:12:16.658Z,12.20
2018-06-30T10:14:45.399Z,12.10
2018-06-30T10:17:13.803Z,12.45
2018-06-30T10:19:42.180Z,12.10
2018-06-30T10:22:10.600Z,12.30
2018-06-30T10:24:39.115Z,13.10
2018-06-30T10:27:07.535Z,12.53
2018-06-30T10:29:36.031Z,11.60
2018-06-30T10:32:04.508Z,13.50
2018-06-30T10:34:32.992Z,11.63
2018-06-30T10:37:01.406Z,11.80
2018-06-30T10:39:29.740Z,12.47
2018-06-30T10:41:58.291Z,12.53
2018-06-30T10:44:26.797Z,12.90
2018-06-30T10:46:55.270Z,12.60
2018-06-30T10:49:23.598Z,13.15
2018-06-30T10:51:52.456Z,13.50
2018-06-30T10:54:20.839Z,12.70
2018-06-30T10:56:49.314Z,12.90
2018-06-30T10:59:17.711Z,12.30
2018-06-30T11:01:46.223Z,11.90
2018-06-30T11:04:14.795Z,12.20
2018-06-30T11:06:43.160Z,11.75
2018-06-30T11:09:12.315Z,11.85
2018-06-30T11:11:41.060Z,11.18
2018-06-30T11:14:09.531Z,11.57
2018-06-30T11:16:37.983Z,12.35
2018-06-30T11:19:06.361Z,11.38
2018-06-30T11:21:34.784Z,11.70
2018-06-30T11:24:02.943Z,10.60
2018-06-30T11:26:31.496Z,11.43
2018-06-30T11:28:59.910Z,11.43
2018-06-30T11:31:29.203Z,10.72
2018-06-30T11:33:57.635Z,11.48
2018-06-30T11:36:25.988Z,10.48
2018-06-30T11:38:54.565Z,11.00
2018-06-30T11:41:22.982Z,12.03
2018-06-30T11:43:51.470Z,10.65
2018-06-30T11:46:20.025Z,10.98
2018-06-30T11:48:48.494Z,11.53
2018-06-30T11:51:16.883Z,10.60
2018-06-30T11:53:45.286Z,10.68
2018-06-30T11:56:13.712Z,10.40
2018-06-30T11:58:41.799Z,10.53
2018-06-30T12:01:10.210Z,10.43
2018-06-30T12:03:38.791Z,10.30
2018-06-30T12:06:07.184Z,11.20
2018-06-30T12:08:35.635Z,11.35
2018-06-30T12:11:04.256Z,10.58
2018-06-30T12:13:32.815Z,11.03
2018-06-30T12:16:01.245Z,10.93
2018-06-30T12:18:29.753Z,11.15
2018-06-30T12:20:58.126Z,10.72
2018-06-30T12:23:26.590Z,10.75
2018-06-30T12:25:55.005Z,10.45
2018-06-30T12:28:23.548Z,10.20
2018-06-30T12:30:52.055Z,10.00
2018-06-30T12:33:20.501Z,10.10
2018-06-30T12:35:48.933Z,9.85
2018-06-30T12:38:17.437Z,9.20
2018-06-30T12:40:45.813Z,9.50
2018-06-30T12:43:14.311Z,9.70
2018-06-30T12:45:42.829Z,9.05
2018-06-30T12:48:11.214Z,9.50
2018-06-30T12:50:39.668Z,9.25
2018-06-30T12:53:08.651Z,9.23
2018-06-30T12:55:37.560Z,9.53
2018-06-30T12:58:06.278Z,8.58
2018-06-30T13:00:34.816Z,9.40
2018-06-30T13:03:02.898Z,9.65
2018-06-30T13:05:31.371Z,8.53
2018-06-30T13:07:59.738Z,8.88
2018-06-30T13:10:28.225Z,8.83
2018-06-30T13:12:56.673Z,9.43
2018-06-30T13:15:25.031Z,9.18
2018-06-30T13:17:53.481Z,8.90
2018-06-30T13:20:22.123Z,8.23
2018-06-30T13:22:50.483Z,8.60
2018-06-30T13:25:18.985Z,8.33
2018-06-30T13:27:47.320Z,9.10
2018-06-30T13:30:15.708Z,8.13
2018-06-30T13:32:44.259Z,8.68
2018-06-30T13:35:12.620Z,8.25
2018-06-30T13:37:40.998Z,8.25
2018-06-30T13:40:09.784Z,9.10
2018-06-30T13:42:38.240Z,8.88
2018-06-30T13:45:08.023Z,8.40
2018-06-30T13:47:36.458Z,8.40
2018-06-30T13:50:05.845Z,9.20
2018-06-30T13:52:34.283Z,8.73
2018-06-30T13:55:02.744Z,8.38
2018-06-30T13:57:31.271Z,8.88
2018-06-30T13:59:59.840Z,8.18
2018-06-30T14:02:28.427Z,8.45
2018-06-30T14:04:56.766Z,8.13
2018-06-30T14:07:25.334Z,8.10
2018-06-30T14:09:53.877Z,8.35
2018-06-30T14:12:22.257Z,8.13
2018-06-30T14:14:50.689Z,7.80
2018-06-30T14:17:19.208Z,7.90
2018-06-30T14:19:47.603Z,7.28
2018-06-30T14:22:16.153Z,7.10
2018-06-30T14:24:44.725Z,7.22
2018-06-30T14:27:13.101Z,7.17
2018-06-30T14:29:41.506Z,7.17
2018-06-30T14:32:10.050Z,7.45
2018-06-30T14:34:38.439Z,7.92
2018-06-30T14:37:06.814Z,6.55
2018-06-30T14:39:35.173Z,7.25
2018-06-30T14:42:03.673Z,6.70
2018-06-30T14:44:32.589Z,6.85
2018-06-30T14:47:01.335Z,6.97
2018-06-30T14:49:29.835Z,7.03
2018-06-30T14:51:58.395Z,6.83
2018-06-30T14:54:26.774Z,6.35
2018-06-30T14:56:55.300Z,6.12
2018-06-30T14:59:23.777Z,6.53
2018-06-30T15:01:52.139Z,6.20
2018-06-30T15:04:20.578Z,6.72
2018-06-30T15:06:48.970Z,6.00
2018-06-30T15:09:17.511Z,6.35
2018-06-30T15:11:46.368Z,6.55
2018-06-30T15:14:21.567Z,6.47
2018-06-30T15:16:49.830Z,6.15
2018-06-30T15:19:18.253Z,6.00
2018-06-30T15:21:47.016Z,5.70
2018-06-30T15:24:15.498Z,6.42
2018-06-30T15:26:44.003Z,6.22
2018-06-30T15:29:12.316Z,6.00
2018-06-30T15:31:40.652Z,6.30
2018-06-30T15:34:09.064Z,6.53
2018-06-30T15:36:38.382Z,5.92
2018-06-30T15:39:08.729Z,6.28
2018-06-30T15:41:37.100Z,6.22
2018-06-30T15:44:05.862Z,5.87
2018-06-30T15:46:34.256Z,6.20
2018-06-30T15:49:02.846Z,5.75
2018-06-30T15:51:31.204Z,6.22
2018-06-30T15:54:00.048Z,5.72
2018-06-30T15:56:28.575Z,5.78
2018-06-30T15:58:58.291Z,5.55
2018-06-30T16:01:30.602Z,6.12
2018-06-30T16:03:59.241Z,6.40
2018-06-30T16:06:27.795Z,6.12
2018-06-30T16:08:57.416Z,6.78
2018-06-30T16:11:25.960Z,6.00
2018-06-30T16:13:54.511Z,6.40
2018-06-30T16:16:23.349Z,6.83
2018-06-30T16:18:52.665Z,6.97
2018-06-30T16:21:21.163Z,7.75
2018-06-30T16:23:49.518Z,8.75
2018-06-30T16:26:18.161Z,6.40
2018-06-30T16:28:46.767Z,7.33
2018-06-30T16:31:15.252Z,7.10
2018-06-30T16:33:43.655Z,7.10
2018-06-30T16:36:12.245Z,6.70
2018-06-30T16:38:40.563Z,6.70
2018-06-30T16:41:09.167Z,6.53
2018-06-30T16:43:37.592Z,7.03
2018-06-30T16:46:06.217Z,6.50
2018-06-30T16:48:34.910Z,6.75
2018-06-30T16:51:03.420Z,8.58
2018-06-30T16:53:32.623Z,7.33
2018-06-30T16:56:01.018Z,8.68
2018-06-30T16:58:29.486Z,7.30
2018-06-30T17:00:58.007Z,7.83
2018-06-30T17:03:26.358Z,6.92
2018-06-30T17:05:54.991Z,7.83
2018-06-30T17:08:25.016Z,7.10
2018-06-30T17:10:53.452Z,7.65
2018-06-30T17:13:21.629Z,7.85
2018-06-30T17:15:50.683Z,7.17
2018-06-30T17:18:19.162Z,6.80
2018-06-30T17:20:47.756Z,6.55
2018-06-30T17:23:16.102Z,7.10
2018-06-30T17:25:44.485Z,7.55
2018-06-30T17:28:12.822Z,7.65
2018-06-30T17:30:41.402Z,7.12
2018-06-30T17:33:09.898Z,6.42
2018-06-30T17:35:38.342Z,6.60
2018-06-30T17:38:06.849Z,7.42
2018-06-30T17:40:35.043Z,7.28
2018-06-30T17:43:03.410Z,7.08
2018-06-30T17:45:31.797Z,6.28
2018-06-30T17:48:00.262Z,7.17
2018-06-30T17:50:28.627Z,7.25
2018-06-30T17:52:57.124Z,7.00
2018-06-30T17:55:26.111Z,7.60
2018-06-30T17:57:54.492Z,7.05
2018-06-30T18:00:22.876Z,7.15
2018-06-30T18:02:51.280Z,6.22
2018-06-30T18:05:19.741Z,7.03
2018-06-30T18:07:48.270Z,7.80
2018-06-30T18:10:16.809Z,7.23
2018-06-30T18:12:45.302Z,7.67
2018-06-30T18:15:13.733Z,7.80
2018-06-30T18:17:42.259Z,6.87
2018-06-30T18:20:10.880Z,7.37
2018-06-30T18:22:39.318Z,7.37
2018-06-30T18:25:08.313Z,7.03
2018-06-30T18:27:36.686Z,7.60
2018-06-30T18:30:05.609Z,7.80
2018-06-30T18:32:33.990Z,7.67
2018-06-30T18:35:02.389Z,7.70
2018-06-30T18:37:30.876Z,7.50
2018-06-30T18:39:59.368Z,7.20
2018-06-30T18:42:27.814Z,7.60
2018-06-30T18:44:56.283Z,7.27
2018-06-30T18:47:24.676Z,7.20
2018-06-30T18:49:53.143Z,6.90
2018-06-30T18:52:21.983Z,7.57
2018-06-30T18:54:50.419Z,7.23
2018-06-30T18:57:18.949Z,7.00
2018-06-30T18:59:47.431Z,7.70
2018-06-30T19:02:15.802Z,7.80
2018-06-30T19:04:44.287Z,8.23
2018-06-30T19:07:12.877Z,7.67
2018-06-30T19:09:41.359Z,7.63
2018-06-30T19:12:09.711Z,8.80
2018-06-30T19:14:38.325Z,7.33
2018-06-30T19:17:07.272Z,7.77
2018-06-30T19:19:35.900Z,7.43
2018-06-30T19:22:04.392Z,7.30
2018-06-30T19:24:32.878Z,7.57
2018-06-30T19:27:01.317Z,7.90
2018-06-30T19:29:29.810Z,7.30
2018-06-30T19:31:58.243Z,7.13
2018-06-30T19:34:26.808Z,7.20
2018-06-30T19:36:55.256Z,7.20
2018-06-30T19:39:23.838Z,7.47
2018-06-30T19:41:52.287Z,7.40
2018-06-30T19:44:21.195Z,6.50
2018-06-30T19:46:49.818Z,7.20
2018-06-30T19:49:18.160Z,8.00
2018-06-30T19:51:46.778Z,7.67
2018-06-30T19:54:15.317Z,7.53
2018-06-30T19:56:44.013Z,7.80
2018-06-30T19:59:12.380Z,7.53
2018-06-30T20:01:40.850Z,7.87
2018-06-30T20:04:09.524Z,9.37
2018-06-30T20:06:38.104Z,8.47
2018-06-30T20:09:07.888Z,8.90
2018-06-30T20:11:36.503Z,8.53
2018-06-30T20:14:06.317Z,9.33
2018-06-30T20:16:35.025Z,9.33
2018-06-30T20:19:03.770Z,7.40
2018-06-30T20:21:32.211Z,7.77
2018-06-30T20:24:00.692Z,7.50
2018-06-30T20:26:29.224Z,8.40
2018-06-30T20:28:57.607Z,6.73
2018-06-30T20:31:26.413Z,7.30
2018-06-30T20:33:54.838Z,7.30
2018-06-30T20:36:23.342Z,8.23
2018-06-30T20:38:52.251Z,8.60
2018-06-30T20:41:20.748Z,7.90
2018-06-30T20:43:49.188Z,8.33
2018-06-30T20:46:17.742Z,7.50
2018-06-30T20:48:46.161Z,8.20
2018-06-30T20:51:14.970Z,7.90
2018-06-30T20:53:43.352Z,7.87
2018-06-30T20:56:11.844Z,7.50
2018-06-30T20:58:40.575Z,7.47
2018-06-30T21:01:09.081Z,7.17
2018-06-30T21:03:37.509Z,8.23
2018-06-30T21:06:05.952Z,7.27
2018-06-30T21:08:34.331Z,8.13
2018-06-30T21:11:02.785Z,7.33
2018-06-30T21:13:31.203Z,6.70
2018-06-30T21:15:59.752Z,7.30
2018-06-30T21:18:28.132Z,7.90
2018-06-30T21:20:56.621Z,7.80
2018-06-30T21:23:25.139Z,7.67
2018-06-30T21:25:53.554Z,7.60
2018-06-30T21:28:21.947Z,6.77
2018-06-30T21:30:50.428Z,7.20
2018-06-30T21:33:19.013Z,7.77
2018-06-30T21:35:47.594Z,7.60
2018-06-30T21:38:16.387Z,6.80
2018-06-30T21:40:44.839Z,7.50
2018-06-30T21:43:13.286Z,7.40
2018-06-30T21:45:41.885Z,7.33
2018-06-30T21:48:10.325Z,7.57
2018-06-30T21:50:39.162Z,7.43
2018-06-30T21:53:07.927Z,8.23
2018-06-30T21:55:36.392Z,8.07
2018-06-30T21:58:05.559Z,7.70
2018-06-30T22:00:47.934Z,7.97
2018-06-30T22:03:19.917Z,7.50
2018-06-30T22:05:48.470Z,8.17
2018-06-30T22:08:17.200Z,7.10
2018-06-30T22:10:45.743Z,8.53
2018-06-30T22:13:14.397Z,7.60
2018-06-30T22:15:42.854Z,7.57
2018-06-30T22:18:11.394Z,7.80
2018-06-30T22:20:39.948Z,8.13
2018-06-30T22:23:08.556Z,8.00
2018-06-30T22:25:37.091Z,7.93
2018-06-30T22:28:05.560Z,8.90
2018-06-30T22:30:33.963Z,8.37
2018-06-30T22:33:02.397Z,8.00
2018-06-30T22:35:30.808Z,8.23
2018-06-30T22:37:59.268Z,7.83
2018-06-30T22:40:27.920Z,8.60
2018-06-30T22:42:56.351Z,7.90
2018-06-30T22:45:24.715Z,7.90
2018-06-30T22:47:53.323Z,8.17
2018-06-30T22:50:22.093Z,8.10
2018-06-30T22:52:50.453Z,8.77
2018-06-30T22:55:18.948Z,8.73
2018-06-30T22:57:47.498Z,8.20
2018-06-30T23:00:18.721Z,8.50
2018-06-30T23:02:47.214Z,8.10
2018-06-30T23:05:16.036Z,8.40
2018-06-30T23:07:44.074Z,8.50
2018-06-30T23:10:13.723Z,8.93
2018-06-30T23:12:43.018Z,8.00
2018-06-30T23:15:12.016Z,9.33
2018-06-30T23:17:40.432Z,8.73
2018-06-30T23:20:09.375Z,9.40
2018-06-30T23:23:06.131Z,8.77
2018-06-30T23:25:35.225Z,8.60
2018-06-30T23:28:03.813Z,9.53
2018-06-30T23:30:32.845Z,8.50
2018-06-30T23:33:01.268Z,8.90
2018-06-30T23:35:31.059Z,9.10
2018-06-30T23:38:00.564Z,8.93
2018-06-30T23:40:29.126Z,8.90
2018-06-30T23:42:57.588Z,8.50
2018-06-30T23:45:26.085Z,9.03
2018-06-30T23:47:54.840Z,9.30
2018-06-30T23:50:29.684Z,9.30
2018-06-30T23:52:58.238Z,9.43
2018-06-30T23:55:27.103Z,9.20
2018-06-30T23:57:55.725Z,9.90
